createdAt,value
2022-12-25T00:01:51.860Z,13.60
2022-12-25T00:04:19.481Z,11.05
2022-12-25T00:06:46.690Z,10.40
2022-12-25T00:09:14.195Z,8.95
2022-12-25T00:11:41.446Z,8.90
2022-12-25T00:14:09.188Z,9.10
2022-12-25T00:16:36.436Z,10.77
2022-12-25T00:19:04.032Z,7.60
2022-12-25T00:21:32.017Z,8.98
2022-12-25T00:24:00.199Z,8.38
2022-12-25T00:26:27.943Z,7.90
2022-12-25T00:28:57.287Z,7.43
2022-12-25T00:31:26.033Z,8.20
2022-12-25T00:33:54.183Z,9.35
2022-12-25T00:36:23.216Z,7.18
2022-12-25T00:38:50.823Z,7.05
2022-12-25T00:41:41.117Z,7.60
2022-12-25T00:44:10.880Z,7.15
2022-12-25T00:46:38.402Z,6.78
2022-12-25T00:49:06.842Z,7.00
2022-12-25T00:51:34.101Z,7.15
2022-12-25T00:54:04.385Z,7.78
2022-12-25T00:56:31.715Z,8.07
2022-12-25T00:58:59.268Z,8.27
2022-12-25T01:01:26.526Z,8.90
2022-12-25T01:03:55.061Z,9.02
2022-12-25T01:06:22.305Z,9.52
2022-12-25T01:09:08.396Z,9.07
2022-12-25T01:11:36.016Z,8.93
2022-12-25T01:14:03.741Z,9.63
2022-12-25T01:16:31.045Z,10.45
2022-12-25T01:18:58.607Z,11.48
2022-12-25T01:21:26.211Z,9.98
2022-12-25T01:23:54.118Z,9.00
2022-12-25T01:26:23.624Z,9.88
2022-12-25T01:28:51.671Z,6.55
2022-12-25T01:31:21.444Z,7.45
2022-12-25T01:33:49.708Z,7.30
2022-12-25T01:36:17.018Z,5.50
2022-12-25T01:38:45.728Z,7.28
2022-12-25T01:41:15.375Z,7.55
2022-12-25T01:44:06.298Z,7.38
2022-12-25T01:46:34.775Z,6.80
2022-12-25T01:49:09.983Z,7.25
2022-12-25T01:51:42.209Z,6.13
2022-12-25T01:54:18.146Z,7.25
2022-12-25T01:56:48.281Z,6.53
2022-12-25T01:59:19.150Z,6.25
2022-12-25T02:01:47.284Z,6.63
2022-12-25T02:04:39.242Z,6.65
2022-12-25T02:07:17.811Z,6.60
2022-12-25T02:09:46.338Z,7.15
2022-12-25T02:12:34.154Z,6.47
2022-12-25T02:15:12.239Z,7.43
2022-12-25T02:17:45.711Z,6.68
2022-12-25T02:20:13.320Z,6.32
2022-12-25T02:23:17.215Z,7.30
2022-12-25T02:25:53.906Z,6.70
2022-12-25T02:29:13.451Z,7.25
2022-12-25T02:31:47.434Z,8.23
2022-12-25T02:34:33.123Z,9.18
2022-12-25T02:37:15.135Z,8.25
2022-12-25T02:40:12.979Z,9.40
2022-12-25T02:43:08.629Z,8.23
2022-12-25T02:46:14.259Z,9.60
2022-12-25T02:49:16.503Z,10.30
2022-12-25T02:52:09.233Z,9.32
2022-12-25T02:55:03.500Z,10.15
2022-12-25T02:57:55.749Z,9.02
2022-12-25T03:00:42.117Z,11.23
2022-12-25T03:03:30.959Z,10.25
2022-12-25T03:06:22.133Z,11.23
2022-12-25T03:08:53.794Z,10.40
2022-12-25T03:11:33.346Z,10.52
2022-12-25T03:14:23.505Z,11.50
2022-12-25T03:16:55.706Z,12.90
2022-12-25T03:19:45.116Z,10.48
2022-12-25T03:22:46.791Z,10.32
2022-12-25T03:25:33.503Z,10.05
2022-12-25T03:28:01.824Z,10.85
2022-12-25T03:31:02.877Z,8.40
2022-12-25T03:33:47.691Z,9.85
2022-12-25T03:36:31.105Z,8.98
2022-12-25T03:39:30.442Z,7.25
2022-12-25T03:42:24.493Z,8.13
2022-12-25T03:45:04.518Z,7.65
2022-12-25T03:47:52.792Z,7.53
2022-12-25T03:50:49.898Z,8.35
2022-12-25T03:53:43.488Z,8.18
2022-12-25T03:56:31.046Z,7.13
2022-12-25T03:59:23.256Z,7.35
2022-12-25T04:02:10.866Z,6.95
2022-12-25T04:04:57.717Z,7.05
2022-12-25T04:07:43.989Z,7.60
2022-12-25T04:10:29.843Z,7.50
2022-12-25T04:13:15.808Z,7.70
2022-12-25T04:16:01.596Z,7.00
2022-12-25T04:18:47.703Z,8.00
2022-12-25T04:21:33.256Z,12.87
2022-12-25T04:24:19.491Z,13.35
2022-12-25T04:27:05.038Z,15.17
2022-12-25T04:29:51.245Z,16.92
2022-12-25T04:32:37.373Z,17.55
2022-12-25T04:35:23.975Z,16.88
2022-12-25T04:37:51.117Z,17.58
2022-12-25T04:40:19.010Z,18.75
2022-12-25T04:42:46.235Z,18.70
2022-12-25T04:45:13.711Z,18.48
2022-12-25T04:47:40.898Z,19.25
2022-12-25T04:50:08.890Z,21.98
2022-12-25T04:52:37.903Z,19.92
2022-12-25T04:55:06.715Z,17.20
2022-12-25T04:57:34.389Z,17.30
2022-12-25T05:00:01.872Z,17.73
2022-12-25T05:02:29.373Z,17.10
2022-12-25T05:04:57.083Z,19.20
2022-12-25T05:07:24.358Z,21.75
2022-12-25T05:09:51.862Z,18.27
2022-12-25T05:12:19.073Z,19.73
2022-12-25T05:14:47.020Z,16.42
2022-12-25T05:17:14.186Z,18.52
2022-12-25T05:19:42.868Z,18.65
2022-12-25T05:22:12.770Z,19.27
2022-12-25T05:24:40.198Z,20.20
2022-12-25T05:27:07.428Z,17.13
2022-12-25T05:29:34.889Z,14.75
2022-12-25T05:32:02.416Z,14.13
2022-12-25T05:34:29.892Z,18.83
2022-12-25T05:36:57.305Z,16.08
2022-12-25T05:39:24.806Z,15.55
2022-12-25T05:41:52.029Z,13.95
2022-12-25T05:44:19.468Z,15.43
2022-12-25T05:46:46.743Z,13.50
2022-12-25T05:49:14.328Z,16.50
2022-12-25T05:51:41.582Z,27.10
2022-12-25T05:54:09.043Z,26.55
2022-12-25T05:56:37.864Z,29.48
2022-12-25T05:59:05.348Z,28.48
2022-12-25T06:01:32.699Z,27.45
2022-12-25T06:04:00.327Z,22.20
2022-12-25T06:06:27.637Z,17.38
2022-12-25T06:08:55.486Z,17.38
2022-12-25T06:11:22.980Z,18.58
2022-12-25T06:13:52.046Z,19.48
2022-12-25T06:16:20.169Z,17.13
2022-12-25T06:18:50.249Z,18.13
2022-12-25T06:21:17.557Z,17.75
2022-12-25T06:23:45.632Z,17.88
2022-12-25T06:26:16.287Z,16.88
2022-12-25T06:28:43.965Z,17.42
2022-12-25T06:31:20.542Z,21.10
2022-12-25T06:33:49.166Z,24.85
2022-12-25T06:36:19.368Z,22.65
2022-12-25T06:38:46.975Z,22.65
2022-12-25T06:41:17.839Z,21.08
2022-12-25T06:43:59.981Z,26.42
2022-12-25T06:46:29.833Z,23.33
2022-12-25T06:48:58.679Z,26.05
2022-12-25T06:51:31.436Z,37.42
2022-12-25T06:53:59.986Z,35.95
2022-12-25T06:56:28.542Z,43.17
2022-12-25T06:58:58.820Z,40.65
2022-12-25T07:01:40.333Z,43.63
2022-12-25T07:04:14.287Z,48.03
2022-12-25T07:06:41.502Z,46.70
2022-12-25T07:09:10.075Z,48.00
2022-12-25T07:11:37.376Z,51.72
2022-12-25T07:14:05.165Z,65.05
2022-12-25T07:16:32.591Z,63.80
2022-12-25T07:19:01.460Z,61.78
2022-12-25T07:21:28.802Z,67.25
2022-12-25T07:23:56.379Z,87.00
2022-12-25T07:26:23.570Z,77.25
2022-12-25T07:28:51.226Z,65.60
2022-12-25T07:31:19.139Z,44.95
2022-12-25T07:33:47.014Z,41.97
2022-12-25T07:36:15.262Z,42.50
2022-12-25T07:38:42.978Z,53.63
2022-12-25T07:41:13.410Z,56.53
2022-12-25T07:43:41.135Z,49.70
2022-12-25T07:46:08.587Z,54.65
2022-12-25T07:48:37.532Z,76.00
2022-12-25T07:51:07.799Z,73.82
2022-12-25T07:53:36.499Z,63.25
2022-12-25T07:56:08.127Z,49.97
2022-12-25T07:58:35.683Z,29.15
2022-12-25T08:01:21.578Z,23.13
2022-12-25T08:03:57.795Z,16.58
2022-12-25T08:06:29.899Z,11.55
2022-12-25T08:09:04.194Z,8.55
2022-12-25T08:11:31.783Z,10.02
2022-12-25T08:13:59.521Z,13.02
2022-12-25T08:16:26.987Z,15.88
2022-12-25T08:18:54.622Z,11.52
2022-12-25T08:21:22.122Z,10.38
2022-12-25T08:23:49.628Z,11.18
2022-12-25T08:26:20.812Z,13.77
2022-12-25T08:28:49.378Z,12.77
2022-12-25T08:31:27.928Z,9.95
2022-12-25T08:33:58.120Z,11.50
2022-12-25T08:36:25.826Z,11.68
2022-12-25T08:39:00.299Z,13.20
2022-12-25T08:41:29.737Z,8.48
2022-12-25T08:43:57.257Z,6.40
2022-12-25T08:46:24.517Z,7.97
2022-12-25T08:48:52.252Z,7.28
2022-12-25T08:51:21.302Z,8.13
2022-12-25T08:53:52.245Z,10.93
2022-12-25T08:56:20.523Z,12.30
2022-12-25T08:58:48.143Z,9.13
2022-12-25T09:01:15.551Z,8.32
2022-12-25T09:03:46.338Z,12.82
2022-12-25T09:06:16.735Z,11.93
2022-12-25T09:08:49.153Z,9.50
2022-12-25T09:11:19.448Z,9.32
2022-12-25T09:13:47.872Z,10.13
2022-12-25T09:16:18.920Z,11.25
2022-12-25T09:18:46.680Z,10.35
2022-12-25T09:21:16.454Z,11.43
2022-12-25T09:23:44.867Z,9.18
2022-12-25T09:26:15.217Z,7.20
2022-12-25T09:28:50.121Z,6.78
2022-12-25T09:31:17.919Z,6.23
2022-12-25T09:33:45.663Z,5.95
2022-12-25T09:36:12.903Z,5.60
2022-12-25T09:38:40.417Z,5.32
2022-12-25T09:41:13.528Z,5.43
2022-12-25T09:43:47.616Z,3.92
2022-12-25T09:46:20.155Z,6.20
2022-12-25T09:49:17.202Z,4.13
2022-12-25T09:54:33.443Z,4.40
2022-12-25T09:57:00.890Z,3.97
2022-12-25T09:59:28.465Z,3.63
2022-12-25T10:02:19.846Z,3.97
2022-12-25T10:05:17.684Z,4.20
2022-12-25T10:07:56.743Z,3.65
2022-12-25T10:10:45.939Z,4.50
2022-12-25T10:13:40.778Z,4.57
2022-12-25T10:16:22.620Z,3.97
2022-12-25T10:19:01.866Z,4.80
2022-12-25T10:21:30.878Z,4.72
2022-12-25T10:24:20.647Z,8.27
2022-12-25T10:26:50.866Z,4.78
2022-12-25T10:29:20.127Z,4.78
2022-12-25T10:31:50.484Z,5.38
2022-12-25T10:34:18.249Z,3.58
2022-12-25T10:36:46.815Z,4.72
2022-12-25T10:39:20.058Z,4.65
2022-12-25T10:42:06.103Z,5.68
2022-12-25T10:44:34.764Z,5.72
2022-12-25T10:47:07.150Z,5.40
2022-12-25T10:49:39.414Z,5.13
2022-12-25T10:52:22.298Z,5.43
2022-12-25T10:54:49.753Z,5.30
2022-12-25T10:57:19.988Z,7.00
2022-12-25T10:59:48.522Z,5.90
2022-12-25T11:02:51.563Z,4.95
2022-12-25T11:05:34.437Z,5.10
2022-12-25T11:08:03.911Z,13.70
2022-12-25T11:10:35.076Z,6.68
2022-12-25T11:13:05.603Z,7.75
2022-12-25T11:15:35.769Z,8.32
2022-12-25T11:18:24.417Z,6.72
2022-12-25T11:21:03.077Z,7.55
2022-12-25T11:23:33.002Z,6.18
2022-12-25T11:26:06.644Z,4.78
2022-12-25T11:28:37.678Z,5.68
2022-12-25T11:31:23.676Z,5.65
2022-12-25T11:34:10.682Z,5.90
2022-12-25T11:36:46.593Z,4.85
2022-12-25T11:39:35.632Z,4.82
2022-12-25T11:42:14.692Z,5.10
2022-12-25T11:45:06.397Z,5.72
2022-12-25T11:47:37.500Z,6.97
2022-12-25T11:50:31.002Z,5.68
2022-12-25T11:53:02.473Z,6.38
2022-12-25T11:55:41.408Z,5.95
2022-12-25T11:58:18.479Z,6.28
2022-12-25T12:00:49.009Z,5.40
2022-12-25T12:03:22.662Z,12.73
2022-12-25T12:05:55.951Z,6.75
2022-12-25T12:08:23.269Z,8.32
2022-12-25T12:11:18.178Z,7.88
2022-12-25T12:14:16.273Z,15.65
2022-12-25T12:16:43.809Z,205.35
2022-12-25T12:19:27.129Z,68.72
2022-12-25T12:22:02.172Z,115.13
2022-12-25T12:24:36.973Z,111.80
2022-12-25T12:27:19.121Z,115.70
2022-12-25T12:29:51.237Z,22.05
2022-12-25T12:32:28.397Z,6.68
2022-12-25T12:34:56.965Z,4.05
2022-12-25T12:37:37.795Z,4.40
2022-12-25T12:40:08.209Z,4.30
2022-12-25T12:42:50.671Z,4.63
2022-12-25T12:45:26.865Z,6.50
2022-12-25T12:47:54.924Z,14.32
2022-12-25T12:50:30.531Z,4.60
2022-12-25T12:52:58.691Z,9.70
2022-12-25T12:55:34.768Z,9.40
2022-12-25T12:58:06.487Z,7.18
2022-12-25T13:01:17.436Z,7.70
2022-12-25T13:04:22.971Z,4.47
2022-12-25T13:07:11.925Z,3.60
2022-12-25T13:09:58.478Z,3.80
2022-12-25T13:12:26.184Z,6.55
2022-12-25T13:14:54.190Z,6.22
2022-12-25T13:17:25.203Z,7.35
2022-12-25T13:19:59.849Z,7.32
2022-12-25T13:22:33.389Z,4.53
2022-12-25T13:25:06.205Z,4.10
2022-12-25T13:27:34.099Z,3.95
2022-12-25T13:30:14.026Z,5.70
2022-12-25T13:32:43.768Z,7.43
2022-12-25T13:35:15.380Z,5.97
2022-12-25T13:37:44.030Z,9.02
2022-12-25T13:40:32.846Z,12.05
2022-12-25T13:43:02.110Z,14.98
2022-12-25T13:45:31.755Z,15.32
2022-12-25T13:48:15.192Z,12.88
2022-12-25T13:50:48.639Z,9.93
2022-12-25T13:53:18.314Z,11.40
2022-12-25T13:55:54.603Z,8.15
2022-12-25T14:01:00.038Z,17.77
2022-12-25T14:03:44.158Z,12.45
2022-12-25T14:06:21.370Z,24.63
2022-12-25T14:08:49.702Z,21.98
2022-12-25T14:11:22.731Z,28.05
2022-12-25T14:13:54.579Z,13.50
2022-12-25T14:16:22.851Z,20.38
2022-12-25T14:18:59.430Z,16.10
2022-12-25T14:21:38.798Z,11.77
2022-12-25T14:24:13.936Z,13.95
2022-12-25T14:26:42.182Z,20.63
2022-12-25T14:29:19.097Z,14.20
2022-12-25T14:31:48.418Z,26.17
2022-12-25T14:34:22.814Z,34.20
2022-12-25T14:36:52.296Z,18.13
2022-12-25T14:39:31.644Z,16.40
2022-12-25T14:42:00.651Z,14.82
2022-12-25T14:44:39.844Z,19.63
2022-12-25T14:47:10.691Z,24.35
2022-12-25T14:49:38.661Z,9.80
2022-12-25T14:52:21.574Z,15.63
2022-12-25T14:55:18.223Z,18.23
2022-12-25T14:57:50.305Z,22.95
2022-12-25T15:00:33.244Z,42.67
2022-12-25T15:03:01.672Z,58.35
2022-12-25T15:05:39.599Z,51.63
2022-12-25T15:08:11.282Z,48.85
2022-12-25T15:10:59.555Z,68.53
2022-12-25T15:13:28.175Z,107.45
2022-12-25T15:16:12.193Z,111.70
2022-12-25T15:18:43.626Z,119.10
2022-12-25T15:21:33.248Z,135.23
2022-12-25T15:24:01.096Z,155.18
2022-12-25T15:26:32.140Z,171.60
2022-12-25T15:29:00.045Z,147.20
2022-12-25T15:31:30.442Z,139.43
2022-12-25T15:34:00.583Z,104.82
2022-12-25T15:36:28.445Z,66.00
2022-12-25T15:38:56.416Z,59.40
2022-12-25T15:41:54.590Z,60.25
2022-12-25T15:44:23.332Z,74.97
2022-12-25T15:46:50.921Z,81.07
2022-12-25T15:49:18.954Z,97.43
2022-12-25T15:51:47.312Z,95.90
2022-12-25T15:54:15.309Z,101.60
2022-12-25T15:56:51.659Z,118.38
2022-12-25T15:59:21.509Z,138.50
2022-12-25T16:01:51.672Z,135.15
2022-12-25T16:04:20.365Z,122.78
2022-12-25T16:06:48.311Z,130.27
2022-12-25T16:09:17.226Z,117.38
2022-12-25T16:11:44.646Z,147.82
2022-12-25T16:14:12.776Z,140.95
2022-12-25T16:16:41.123Z,114.55
2022-12-25T16:19:09.082Z,107.88
2022-12-25T16:21:46.836Z,109.53
2022-12-25T16:24:14.834Z,99.85
2022-12-25T16:26:42.824Z,93.75
2022-12-25T16:29:11.101Z,121.18
2022-12-25T16:31:39.406Z,129.68
2022-12-25T16:34:08.342Z,141.02
2022-12-25T16:36:36.484Z,150.38
2022-12-25T16:39:05.460Z,165.43
2022-12-25T16:41:32.882Z,156.23
2022-12-25T16:44:12.257Z,166.20
2022-12-25T16:46:40.204Z,164.35
2022-12-25T16:49:07.992Z,139.98
2022-12-25T16:51:35.377Z,133.40
2022-12-25T16:54:04.474Z,141.13
2022-12-25T16:56:32.584Z,109.72
2022-12-25T16:59:01.200Z,79.15
2022-12-25T17:01:29.351Z,109.82
2022-12-25T17:04:01.829Z,129.50
2022-12-25T17:06:30.975Z,129.27
2022-12-25T17:08:59.853Z,125.07
2022-12-25T17:11:30.271Z,126.15
2022-12-25T17:14:00.121Z,121.65
2022-12-25T17:16:30.073Z,129.27
2022-12-25T17:19:01.610Z,129.32
2022-12-25T17:21:30.319Z,136.60
2022-12-25T17:24:02.392Z,136.48
2022-12-25T17:26:32.726Z,133.43
2022-12-25T17:29:00.770Z,122.03
2022-12-25T17:31:29.183Z,115.90
2022-12-25T17:33:56.990Z,111.25
2022-12-25T17:36:25.320Z,119.70
2022-12-25T17:38:53.299Z,171.57
2022-12-25T17:41:20.622Z,164.88
2022-12-25T17:43:48.913Z,167.98
2022-12-25T17:46:19.477Z,171.00
2022-12-25T17:48:47.494Z,147.40
2022-12-25T17:51:17.059Z,99.53
2022-12-25T17:53:47.364Z,117.45
2022-12-25T17:56:15.980Z,119.40
2022-12-25T17:58:44.128Z,110.88
2022-12-25T18:01:16.861Z,131.68
2022-12-25T18:03:45.764Z,132.82
2022-12-25T18:06:16.231Z,132.95
2022-12-25T18:08:47.028Z,127.85
2022-12-25T18:11:18.365Z,123.95
2022-12-25T18:13:48.598Z,119.63
2022-12-25T18:16:17.472Z,119.40
2022-12-25T18:18:51.512Z,130.98
2022-12-25T18:21:21.541Z,137.90
2022-12-25T18:23:49.998Z,156.40
2022-12-25T18:26:20.880Z,184.93
2022-12-25T18:28:49.820Z,193.90
2022-12-25T18:31:23.529Z,177.15
2022-12-25T18:33:52.024Z,147.30
2022-12-25T18:36:22.792Z,147.93
2022-12-25T18:38:51.960Z,149.27
2022-12-25T18:41:21.141Z,151.25
2022-12-25T18:43:52.186Z,182.65
2022-12-25T18:46:27.636Z,181.95
2022-12-25T18:48:57.469Z,185.50
2022-12-25T18:51:27.684Z,200.60
2022-12-25T18:53:58.913Z,193.90
2022-12-25T18:56:26.394Z,190.15
2022-12-25T18:58:53.990Z,219.07
2022-12-25T19:01:23.222Z,213.25
2022-12-25T19:03:51.896Z,242.25
2022-12-25T19:06:21.169Z,228.15
2022-12-25T19:08:49.522Z,278.90
2022-12-25T19:11:17.815Z,266.75
2022-12-25T19:13:46.044Z,276.65
2022-12-25T19:16:16.682Z,281.45
2022-12-25T19:18:46.347Z,265.75
2022-12-25T19:21:13.963Z,239.88
2022-12-25T19:23:41.681Z,193.68
2022-12-25T19:26:10.510Z,183.27
2022-12-25T19:28:39.081Z,172.23
2022-12-25T19:31:08.662Z,181.75
2022-12-25T19:33:41.303Z,187.10
2022-12-25T19:36:11.921Z,205.23
2022-12-25T19:38:39.774Z,175.52
2022-12-25T19:41:09.188Z,180.68
2022-12-25T19:43:39.284Z,217.52
2022-12-25T19:46:08.962Z,221.55
2022-12-25T19:48:37.469Z,227.95
2022-12-25T19:51:04.892Z,214.80
2022-12-25T19:53:32.542Z,225.60
2022-12-25T19:56:03.421Z,218.55
2022-12-25T19:58:31.268Z,221.63
2022-12-25T20:01:00.582Z,229.68
2022-12-25T20:03:28.745Z,219.60
2022-12-25T20:05:57.305Z,218.10
2022-12-25T20:08:25.439Z,215.32
2022-12-25T20:10:53.163Z,212.40
2022-12-25T20:13:21.534Z,214.13
2022-12-25T20:15:49.095Z,234.35
2022-12-25T20:18:17.343Z,238.52
2022-12-25T20:20:45.127Z,253.60
2022-12-25T20:23:12.790Z,253.77
2022-12-25T20:25:42.042Z,264.45
2022-12-25T20:28:10.241Z,326.33
2022-12-25T20:30:39.769Z,324.27
2022-12-25T20:33:08.659Z,266.20
2022-12-25T20:35:37.090Z,258.63
2022-12-25T20:38:04.978Z,229.07
2022-12-25T20:40:46.763Z,192.15
2022-12-25T20:43:20.102Z,178.90
2022-12-25T20:45:51.631Z,147.38
2022-12-25T20:48:19.422Z,143.43
2022-12-25T20:50:46.883Z,174.02
2022-12-25T20:53:17.933Z,182.10
2022-12-25T20:55:50.083Z,157.02
2022-12-25T20:58:20.547Z,146.53
2022-12-25T21:00:47.975Z,146.82
2022-12-25T21:03:15.928Z,147.98
2022-12-25T21:05:50.100Z,139.40
2022-12-25T21:08:18.347Z,135.15
2022-12-25T21:10:50.485Z,136.68
2022-12-25T21:13:25.278Z,134.38
2022-12-25T21:15:53.217Z,138.82
2022-12-25T21:18:23.205Z,133.45
2022-12-25T21:20:53.773Z,126.65
2022-12-25T21:23:22.455Z,123.18
2022-12-25T21:25:49.895Z,121.72
2022-12-25T21:28:17.682Z,114.00
2022-12-25T21:30:45.184Z,119.63
2022-12-25T21:33:32.361Z,116.68
2022-12-25T21:36:11.491Z,144.30
2022-12-25T21:38:39.729Z,200.68
2022-12-25T21:41:10.168Z,189.40
2022-12-25T21:43:39.421Z,140.60
2022-12-25T21:46:12.676Z,118.10
2022-12-25T21:48:41.471Z,112.40
2022-12-25T21:51:39.528Z,104.95
2022-12-25T21:54:07.975Z,108.97
2022-12-25T21:56:43.404Z,112.55
2022-12-25T21:59:20.795Z,115.93
2022-12-25T22:04:18.273Z,106.85
2022-12-25T22:07:04.843Z,116.53
2022-12-25T22:09:33.684Z,115.30
2022-12-25T22:12:19.607Z,114.93
2022-12-25T22:15:02.765Z,112.05
2022-12-25T22:17:55.226Z,109.82
2022-12-25T22:20:28.352Z,108.45
2022-12-25T22:22:56.449Z,112.07
2022-12-25T22:25:24.841Z,114.68
2022-12-25T22:27:52.764Z,113.43
2022-12-25T22:30:26.461Z,119.55
2022-12-25T22:32:54.012Z,123.47
2022-12-25T22:35:21.940Z,130.68
2022-12-25T22:37:50.003Z,131.02
2022-12-25T22:40:19.337Z,136.90
2022-12-25T22:42:46.893Z,135.02
2022-12-25T22:45:14.687Z,131.05
2022-12-25T22:47:42.134Z,120.72
2022-12-25T22:50:11.100Z,119.18
2022-12-25T22:52:38.910Z,131.25
2022-12-25T22:55:08.941Z,134.02
2022-12-25T22:57:36.434Z,129.82
2022-12-25T23:00:06.443Z,138.48
2022-12-25T23:02:35.421Z,141.95
2022-12-25T23:05:03.813Z,130.30
2022-12-25T23:07:31.124Z,130.05
2022-12-25T23:09:58.756Z,118.57
2022-12-25T23:12:45.313Z,105.97
2022-12-25T23:15:13.006Z,114.38
2022-12-25T23:17:58.666Z,111.45
2022-12-25T23:20:44.961Z,113.15
2022-12-25T23:23:35.402Z,113.95
2022-12-25T23:26:09.997Z,107.38
2022-12-25T23:29:00.318Z,112.13
2022-12-25T23:31:38.159Z,100.35
2022-12-25T23:34:06.816Z,104.72
2022-12-25T23:36:34.634Z,97.88
2022-12-25T23:39:09.110Z,99.10
2022-12-25T23:41:39.310Z,93.53
2022-12-25T23:44:07.245Z,85.15
2022-12-25T23:46:35.094Z,89.05
2022-12-25T23:49:02.585Z,88.70
2022-12-25T23:51:30.407Z,89.43
2022-12-25T23:53:57.602Z,90.03
2022-12-25T23:56:25.177Z,86.45
2022-12-25T23:58:52.497Z,119.45
